Airfield :
LOGIN :

Register | Disclaimer

   EN    FR    IT 

 










Legend :    VFR   Marginal VFR   IFR   Intensive IFR   Very Intensive IFR
Visi :
Ceiling :
>= 8 km
>= 3000ft
5 to 8 km
1000 to 3000 ft
1500m to 5 km
500 to 1000 ft
800 to 1500m
200 to 500 ft
< 800m
< 200 ft
Symbols :   Thunderstorms  Fog  Heavy snow  Heavy precipitations  Wind > 20 kt
SIGMETs :     Misc.  Thunderstorms  Icing  Turbulence  Mountain Waves  Volcanic Ashes







- Airport Elevation : 788 ft
- IATA code : DCM
- Download approach charts


LFCK - Castres-Mazamet

CURRENT METAR :
  • 150030Z AUTO 26014KT 9999 FEW020 SCT026 BKN031 10/07 Q1009

EXPIRED METARs :
  • 150000Z AUTO 27010KT 9999 FEW019 BKN025 OVC070 10/08 Q1009
  • 142330Z AUTO 26012KT 9999 SCT020 BKN027 OVC035 10/08 Q1009
  • 142300Z AUTO 26012KT 9999 BKN027 OVC034 10/08 Q1009
  • 142230Z AUTO 27009KT 9999 BKN024 BKN035 OVC056 10/07 Q1010
  • 142200Z AUTO 27009KT 9999 FEW026 OVC052 10/07 Q1010 BECMG 27015G25KT

TAF TAF LFCK
Valid from the 14 at 18:00 until the 15 at 03:00 UTC


141700Z 1418/1503 28008KT 9999 BKN018 SCT030
TEMPO 1418/1422 30018KT RA SCT006 BKN012
BECMG 1423/1501 27015G25KT
BECMG 1502/1503 4000 RA BKN006 BKN012
No reported NOTAMs for that airfield.
2 SIGMETs reported for the Bordeaux FIR (LFBB) :
 
Severe turbulence
LFBB SIGMET 9 VALID 142300/150300 LFPW
LFBB BORDEAUX FIR/UIR SEV TURB FCST WI N4700 E00215 - N4630 E00300 - N4430 E00245 - N4430 E00200 - N4645 E00115 - N4700 E00215 FL170/280 STNR WKN=
Severe turbulence
LFBB SIGMET 10 VALID 142300/150300 LFPW
LFBB BORDEAUX FIR/UIR SEV TURB FCST WI N4300 W00115 - N4300 W00145 - N4630 W00130 - N4630 W00100 - N4615 W00100 - N4300 W00115 SFC/FL050 STNR WKN=



MET'MAP, your aeronautical weather chart ! - Copyright ORBIFLY December 2007 - Disclaimer

ORBIFLY MET'MAP TEAM :

Programming & Development : Alexandra Zaïnal
Concept & Development : Baudouin d'Aumeries
Co-Development & Prog : Marc-Olivier Méhu
Technical & hardware support : Manuel Goepfert

Contact : metmap@orbifly.com




SOURCES & CREDITS :

   NOAA